sensor_id;sensor_type;location;lat;lon;timestamp;temperature;humidity
35325;DHT22;35135;47.510;19.036;2023-12-14T00:00:14;21.30;51.40
35325;DHT22;35135;47.510;19.036;2023-12-14T00:02:40;21.30;51.40
35325;DHT22;35135;47.510;19.036;2023-12-14T00:05:06;21.30;51.40
35325;DHT22;35135;47.510;19.036;2023-12-14T00:07:32;21.30;51.50
35325;DHT22;35135;47.510;19.036;2023-12-14T00:09:57;21.30;51.40
35325;DHT22;35135;47.510;19.036;2023-12-14T00:12:23;21.30;51.40
35325;DHT22;35135;47.510;19.036;2023-12-14T00:14:49;21.30;51.40
35325;DHT22;35135;47.510;19.036;2023-12-14T00:17:14;21.30;51.50
35325;DHT22;35135;47.510;19.036;2023-12-14T00:19:40;21.30;51.40
35325;DHT22;35135;47.510;19.036;2023-12-14T00:22:06;21.30;51.50
35325;DHT22;35135;47.510;19.036;2023-12-14T00:24:31;21.20;51.50
35325;DHT22;35135;47.510;19.036;2023-12-14T00:26:57;21.30;51.50
35325;DHT22;35135;47.510;19.036;2023-12-14T00:29:22;21.20;51.40
35325;DHT22;35135;47.510;19.036;2023-12-14T00:31:49;21.30;51.50
35325;DHT22;35135;47.510;19.036;2023-12-14T00:34:15;21.30;51.50
35325;DHT22;35135;47.510;19.036;2023-12-14T00:36:40;21.20;51.40
35325;DHT22;35135;47.510;19.036;2023-12-14T00:39:06;21.20;51.40
35325;DHT22;35135;47.510;19.036;2023-12-14T00:41:32;21.20;51.50
35325;DHT22;35135;47.510;19.036;2023-12-14T00:43:57;21.20;51.50
35325;DHT22;35135;47.510;19.036;2023-12-14T00:46:23;21.30;51.50
35325;DHT22;35135;47.510;19.036;2023-12-14T00:48:48;21.20;51.50
35325;DHT22;35135;47.510;19.036;2023-12-14T00:51:14;21.20;51.50
35325;DHT22;35135;47.510;19.036;2023-12-14T00:53:40;21.20;51.60
35325;DHT22;35135;47.510;19.036;2023-12-14T00:56:08;21.20;51.50
35325;DHT22;35135;47.510;19.036;2023-12-14T00:58:34;21.20;51.50
35325;DHT22;35135;47.510;19.036;2023-12-14T01:00:59;21.20;51.70
35325;DHT22;35135;47.510;19.036;2023-12-14T01:03:25;21.20;51.60
35325;DHT22;35135;47.510;19.036;2023-12-14T01:05:51;21.20;51.60
35325;DHT22;35135;47.510;19.036;2023-12-14T01:08:16;21.20;51.60
35325;DHT22;35135;47.510;19.036;2023-12-14T01:10:43;21.20;51.60
35325;DHT22;35135;47.510;19.036;2023-12-14T01:13:08;21.10;51.60
35325;DHT22;35135;47.510;19.036;2023-12-14T01:15:34;21.10;51.60
35325;DHT22;35135;47.510;19.036;2023-12-14T01:18:00;21.10;51.60
35325;DHT22;35135;47.510;19.036;2023-12-14T01:20:25;21.10;52.10
35325;DHT22;35135;47.510;19.036;2023-12-14T01:22:51;21.10;51.70
35325;DHT22;35135;47.510;19.036;2023-12-14T01:25:17;21.10;51.60
35325;DHT22;35135;47.510;19.036;2023-12-14T01:27:42;21.10;51.60
35325;DHT22;35135;47.510;19.036;2023-12-14T01:30:08;21.20;51.70
35325;DHT22;35135;47.510;19.036;2023-12-14T01:32:34;21.10;51.70
35325;DHT22;35135;47.510;19.036;2023-12-14T01:35:00;21.10;51.70
35325;DHT22;35135;47.510;19.036;2023-12-14T01:37:25;21.10;51.60
35325;DHT22;35135;47.510;19.036;2023-12-14T01:39:51;21.10;51.60
35325;DHT22;35135;47.510;19.036;2023-12-14T01:42:17;21.10;51.60
35325;DHT22;35135;47.510;19.036;2023-12-14T01:44:42;21.10;51.60
35325;DHT22;35135;47.510;19.036;2023-12-14T01:47:08;21.10;51.70
35325;DHT22;35135;47.510;19.036;2023-12-14T01:49:33;21.10;51.70
35325;DHT22;35135;47.510;19.036;2023-12-14T01:51:59;21.10;51.70
35325;DHT22;35135;47.510;19.036;2023-12-14T01:54:25;21.00;51.60
35325;DHT22;35135;47.510;19.036;2023-12-14T01:56:50;21.00;51.60
35325;DHT22;35135;47.510;19.036;2023-12-14T01:59:16;21.00;51.70
35325;DHT22;35135;47.510;19.036;2023-12-14T02:01:43;21.00;51.70
35325;DHT22;35135;47.510;19.036;2023-12-14T02:04:11;21.10;51.70
35325;DHT22;35135;47.510;19.036;2023-12-14T02:06:37;21.00;51.70
35325;DHT22;35135;47.510;19.036;2023-12-14T02:09:03;21.00;51.70
35325;DHT22;35135;47.510;19.036;2023-12-14T02:11:29;21.10;51.80
35325;DHT22;35135;47.510;19.036;2023-12-14T02:13:55;21.00;51.70
35325;DHT22;35135;47.510;19.036;2023-12-14T02:16:21;21.00;51.70
35325;DHT22;35135;47.510;19.036;2023-12-14T02:18:46;21.00;51.70
35325;DHT22;35135;47.510;19.036;2023-12-14T02:21:12;21.00;51.60
35325;DHT22;35135;47.510;19.036;2023-12-14T02:23:44;21.00;51.80
35325;DHT22;35135;47.510;19.036;2023-12-14T02:26:11;21.00;51.70
35325;DHT22;35135;47.510;19.036;2023-12-14T02:28:37;21.00;51.70
35325;DHT22;35135;47.510;19.036;2023-12-14T02:31:03;21.00;51.70
35325;DHT22;35135;47.510;19.036;2023-12-14T02:33:28;21.00;51.70
35325;DHT22;35135;47.510;19.036;2023-12-14T02:35:54;21.00;51.80
35325;DHT22;35135;47.510;19.036;2023-12-14T02:38:20;21.00;51.80
35325;DHT22;35135;47.510;19.036;2023-12-14T02:40:46;21.00;51.70
35325;DHT22;35135;47.510;19.036;2023-12-14T02:43:12;20.90;51.70
35325;DHT22;35135;47.510;19.036;2023-12-14T02:45:38;21.00;51.70
35325;DHT22;35135;47.510;19.036;2023-12-14T02:48:04;20.90;51.70
35325;DHT22;35135;47.510;19.036;2023-12-14T02:50:29;21.00;51.80
35325;DHT22;35135;47.510;19.036;2023-12-14T02:52:55;21.00;51.80
35325;DHT22;35135;47.510;19.036;2023-12-14T02:55:21;20.90;51.70
35325;DHT22;35135;47.510;19.036;2023-12-14T02:57:47;20.90;51.70
35325;DHT22;35135;47.510;19.036;2023-12-14T03:00:13;20.90;51.70
35325;DHT22;35135;47.510;19.036;2023-12-14T03:02:38;20.90;51.70
35325;DHT22;35135;47.510;19.036;2023-12-14T03:05:04;20.90;51.80
35325;DHT22;35135;47.510;19.036;2023-12-14T03:07:30;20.90;51.70
35325;DHT22;35135;47.510;19.036;2023-12-14T03:09:56;20.90;51.70
35325;DHT22;35135;47.510;19.036;2023-12-14T03:12:21;20.90;51.80
35325;DHT22;35135;47.510;19.036;2023-12-14T03:14:47;20.90;51.70
35325;DHT22;35135;47.510;19.036;2023-12-14T03:17:13;20.90;52.40
35325;DHT22;35135;47.510;19.036;2023-12-14T03:19:39;20.90;51.70
35325;DHT22;35135;47.510;19.036;2023-12-14T03:22:06;20.90;51.80
35325;DHT22;35135;47.510;19.036;2023-12-14T03:24:32;20.90;51.80
35325;DHT22;35135;47.510;19.036;2023-12-14T03:26:58;20.90;51.80
35325;DHT22;35135;47.510;19.036;2023-12-14T03:29:24;20.90;51.80
35325;DHT22;35135;47.510;19.036;2023-12-14T03:31:50;20.90;51.80
35325;DHT22;35135;47.510;19.036;2023-12-14T03:34:16;20.90;51.70
35325;DHT22;35135;47.510;19.036;2023-12-14T03:36:42;20.90;51.80
35325;DHT22;35135;47.510;19.036;2023-12-14T03:39:08;20.90;51.90
35325;DHT22;35135;47.510;19.036;2023-12-14T03:41:33;20.90;51.90
35325;DHT22;35135;47.510;19.036;2023-12-14T03:43:59;20.90;51.80
35325;DHT22;35135;47.510;19.036;2023-12-14T03:46:24;20.90;51.80
35325;DHT22;35135;47.510;19.036;2023-12-14T03:48:50;20.90;52.00
35325;DHT22;35135;47.510;19.036;2023-12-14T03:51:20;20.90;51.80
35325;DHT22;35135;47.510;19.036;2023-12-14T03:53:45;20.90;51.80
35325;DHT22;35135;47.510;19.036;2023-12-14T03:56:11;20.90;51.80
35325;DHT22;35135;47.510;19.036;2023-12-14T03:58:37;20.90;51.80
35325;DHT22;35135;47.510;19.036;2023-12-14T04:01:03;20.90;52.00
35325;DHT22;35135;47.510;19.036;2023-12-14T04:03:28;20.90;51.90
35325;DHT22;35135;47.510;19.036;2023-12-14T04:05:54;20.90;51.80
35325;DHT22;35135;47.510;19.036;2023-12-14T04:08:20;20.80;51.80
35325;DHT22;35135;47.510;19.036;2023-12-14T04:10:45;20.80;51.80
35325;DHT22;35135;47.510;19.036;2023-12-14T04:13:11;20.80;51.80
35325;DHT22;35135;47.510;19.036;2023-12-14T04:15:37;20.80;51.80
35325;DHT22;35135;47.510;19.036;2023-12-14T04:18:02;20.80;51.80
35325;DHT22;35135;47.510;19.036;2023-12-14T04:20:28;20.80;51.80
35325;DHT22;35135;47.510;19.036;2023-12-14T04:22:54;20.80;51.80
35325;DHT22;35135;47.510;19.036;2023-12-14T04:25:20;20.80;51.90
35325;DHT22;35135;47.510;19.036;2023-12-14T04:27:45;20.90;52.00
35325;DHT22;35135;47.510;19.036;2023-12-14T04:30:11;20.80;51.80
35325;DHT22;35135;47.510;19.036;2023-12-14T04:32:38;20.80;51.80
35325;DHT22;35135;47.510;19.036;2023-12-14T04:35:04;20.80;52.40
35325;DHT22;35135;47.510;19.036;2023-12-14T04:37:30;20.80;51.80
35325;DHT22;35135;47.510;19.036;2023-12-14T04:39:59;20.80;51.80
35325;DHT22;35135;47.510;19.036;2023-12-14T04:42:25;20.80;51.80
35325;DHT22;35135;47.510;19.036;2023-12-14T04:44:50;20.80;51.80
35325;DHT22;35135;47.510;19.036;2023-12-14T04:47:16;20.80;51.80
35325;DHT22;35135;47.510;19.036;2023-12-14T04:49:42;20.80;51.80
35325;DHT22;35135;47.510;19.036;2023-12-14T04:52:07;20.80;51.90
35325;DHT22;35135;47.510;19.036;2023-12-14T04:54:34;20.80;52.00
35325;DHT22;35135;47.510;19.036;2023-12-14T04:57:03;20.80;51.80
35325;DHT22;35135;47.510;19.036;2023-12-14T04:59:29;20.70;51.80
35325;DHT22;35135;47.510;19.036;2023-12-14T05:01:55;20.80;51.90
35325;DHT22;35135;47.510;19.036;2023-12-14T05:04:20;20.80;51.90
35325;DHT22;35135;47.510;19.036;2023-12-14T05:06:46;20.80;51.90
35325;DHT22;35135;47.510;19.036;2023-12-14T05:09:12;20.80;51.80
35325;DHT22;35135;47.510;19.036;2023-12-14T05:11:39;20.80;51.80
35325;DHT22;35135;47.510;19.036;2023-12-14T05:14:05;20.80;52.40
35325;DHT22;35135;47.510;19.036;2023-12-14T05:16:31;20.80;51.90
35325;DHT22;35135;47.510;19.036;2023-12-14T05:18:57;20.80;51.80
35325;DHT22;35135;47.510;19.036;2023-12-14T05:21:23;20.80;51.80
35325;DHT22;35135;47.510;19.036;2023-12-14T05:23:49;20.80;51.70
35325;DHT22;35135;47.510;19.036;2023-12-14T05:26:14;20.80;51.80
35325;DHT22;35135;47.510;19.036;2023-12-14T05:28:41;20.90;51.80
35325;DHT22;35135;47.510;19.036;2023-12-14T05:31:06;20.90;51.70
35325;DHT22;35135;47.510;19.036;2023-12-14T05:33:35;21.10;51.60
35325;DHT22;35135;47.510;19.036;2023-12-14T05:36:01;21.20;51.50
35325;DHT22;35135;47.510;19.036;2023-12-14T05:38:28;21.30;51.40
35325;DHT22;35135;47.510;19.036;2023-12-14T05:40:53;21.40;51.20
35325;DHT22;35135;47.510;19.036;2023-12-14T05:43:19;21.50;51.10
35325;DHT22;35135;47.510;19.036;2023-12-14T05:45:44;21.60;50.90
35325;DHT22;35135;47.510;19.036;2023-12-14T05:48:10;21.60;50.70
35325;DHT22;35135;47.510;19.036;2023-12-14T05:50:36;21.70;50.70
35325;DHT22;35135;47.510;19.036;2023-12-14T05:53:01;21.70;50.60
35325;DHT22;35135;47.510;19.036;2023-12-14T05:55:27;21.70;50.50
35325;DHT22;35135;47.510;19.036;2023-12-14T05:57:53;21.70;50.50
35325;DHT22;35135;47.510;19.036;2023-12-14T06:00:20;21.80;50.60
35325;DHT22;35135;47.510;19.036;2023-12-14T06:02:46;21.80;50.60
35325;DHT22;35135;47.510;19.036;2023-12-14T06:05:11;21.80;50.60
35325;DHT22;35135;47.510;19.036;2023-12-14T06:07:37;21.80;50.60
35325;DHT22;35135;47.510;19.036;2023-12-14T06:10:03;21.80;50.70
35325;DHT22;35135;47.510;19.036;2023-12-14T06:12:29;21.80;50.70
35325;DHT22;35135;47.510;19.036;2023-12-14T06:14:54;21.80;50.70
35325;DHT22;35135;47.510;19.036;2023-12-14T06:17:20;21.80;50.80
35325;DHT22;35135;47.510;19.036;2023-12-14T06:19:46;21.80;50.90
35325;DHT22;35135;47.510;19.036;2023-12-14T06:22:11;21.70;51.00
35325;DHT22;35135;47.510;19.036;2023-12-14T06:24:37;21.80;51.00
35325;DHT22;35135;47.510;19.036;2023-12-14T06:27:03;21.80;51.20
35325;DHT22;35135;47.510;19.036;2023-12-14T06:29:29;21.70;51.10
35325;DHT22;35135;47.510;19.036;2023-12-14T06:31:54;21.70;50.20
35325;DHT22;35135;47.510;19.036;2023-12-14T06:34:20;21.50;48.80
35325;DHT22;35135;47.510;19.036;2023-12-14T06:36:46;21.20;50.30
35325;DHT22;35135;47.510;19.036;2023-12-14T06:39:11;21.10;51.60
35325;DHT22;35135;47.510;19.036;2023-12-14T06:41:37;21.10;51.80
35325;DHT22;35135;47.510;19.036;2023-12-14T06:44:03;21.10;51.80
35325;DHT22;35135;47.510;19.036;2023-12-14T06:46:29;21.20;48.70
35325;DHT22;35135;47.510;19.036;2023-12-14T06:48:54;21.10;49.20
35325;DHT22;35135;47.510;19.036;2023-12-14T06:51:21;21.20;49.40
35325;DHT22;35135;47.510;19.036;2023-12-14T06:53:47;21.20;49.60
35325;DHT22;35135;47.510;19.036;2023-12-14T06:56:13;21.20;49.90
35325;DHT22;35135;47.510;19.036;2023-12-14T06:58:43;21.20;49.90
35325;DHT22;35135;47.510;19.036;2023-12-14T07:01:16;21.20;49.90
35325;DHT22;35135;47.510;19.036;2023-12-14T07:03:43;21.20;49.90
35325;DHT22;35135;47.510;19.036;2023-12-14T07:06:17;21.30;50.00
35325;DHT22;35135;47.510;19.036;2023-12-14T07:08:43;21.30;49.90
35325;DHT22;35135;47.510;19.036;2023-12-14T07:11:09;21.20;50.10
35325;DHT22;35135;47.510;19.036;2023-12-14T07:13:35;21.30;50.00
35325;DHT22;35135;47.510;19.036;2023-12-14T07:16:06;21.20;50.00
35325;DHT22;35135;47.510;19.036;2023-12-14T07:18:40;21.20;50.00
35325;DHT22;35135;47.510;19.036;2023-12-14T07:21:06;21.20;50.00
35325;DHT22;35135;47.510;19.036;2023-12-14T07:23:32;21.20;50.10
35325;DHT22;35135;47.510;19.036;2023-12-14T07:25:58;21.20;50.10
35325;DHT22;35135;47.510;19.036;2023-12-14T07:28:23;21.20;50.20
35325;DHT22;35135;47.510;19.036;2023-12-14T07:30:50;21.20;50.30
35325;DHT22;35135;47.510;19.036;2023-12-14T07:33:16;21.20;50.40
35325;DHT22;35135;47.510;19.036;2023-12-14T07:35:41;21.20;50.40
35325;DHT22;35135;47.510;19.036;2023-12-14T07:38:08;21.20;50.40
35325;DHT22;35135;47.510;19.036;2023-12-14T07:40:33;21.20;50.60
35325;DHT22;35135;47.510;19.036;2023-12-14T07:42:59;21.20;50.60
35325;DHT22;35135;47.510;19.036;2023-12-14T07:45:25;21.20;50.70
35325;DHT22;35135;47.510;19.036;2023-12-14T07:47:50;21.20;50.60
35325;DHT22;35135;47.510;19.036;2023-12-14T07:50:16;21.20;50.70
35325;DHT22;35135;47.510;19.036;2023-12-14T07:52:42;21.10;50.70
35325;DHT22;35135;47.510;19.036;2023-12-14T07:55:08;21.20;50.80
35325;DHT22;35135;47.510;19.036;2023-12-14T07:57:33;21.10;50.90
35325;DHT22;35135;47.510;19.036;2023-12-14T07:59:59;21.10;50.80
35325;DHT22;35135;47.510;19.036;2023-12-14T08:02:25;21.20;50.90
35325;DHT22;35135;47.510;19.036;2023-12-14T08:04:51;21.10;51.00
35325;DHT22;35135;47.510;19.036;2023-12-14T08:07:17;21.10;50.90
35325;DHT22;35135;47.510;19.036;2023-12-14T08:09:42;21.10;50.90
35325;DHT22;35135;47.510;19.036;2023-12-14T08:12:08;21.10;51.00
35325;DHT22;35135;47.510;19.036;2023-12-14T08:14:34;21.10;51.00
35325;DHT22;35135;47.510;19.036;2023-12-14T08:17:01;21.10;51.00
35325;DHT22;35135;47.510;19.036;2023-12-14T08:19:27;21.10;51.00
35325;DHT22;35135;47.510;19.036;2023-12-14T08:21:53;21.10;51.10
35325;DHT22;35135;47.510;19.036;2023-12-14T08:24:18;21.10;51.00
35325;DHT22;35135;47.510;19.036;2023-12-14T08:26:44;21.10;51.00
35325;DHT22;35135;47.510;19.036;2023-12-14T08:29:10;21.10;51.00
35325;DHT22;35135;47.510;19.036;2023-12-14T08:31:35;21.10;51.00
35325;DHT22;35135;47.510;19.036;2023-12-14T08:34:01;21.10;51.10
35325;DHT22;35135;47.510;19.036;2023-12-14T08:36:28;21.00;51.00
35325;DHT22;35135;47.510;19.036;2023-12-14T08:38:54;21.00;51.00
35325;DHT22;35135;47.510;19.036;2023-12-14T08:41:20;21.00;51.00
35325;DHT22;35135;47.510;19.036;2023-12-14T08:43:46;21.10;51.10
35325;DHT22;35135;47.510;19.036;2023-12-14T08:46:11;21.00;51.10
35325;DHT22;35135;47.510;19.036;2023-12-14T08:48:37;21.00;51.00
35325;DHT22;35135;47.510;19.036;2023-12-14T08:51:03;21.00;51.00
35325;DHT22;35135;47.510;19.036;2023-12-14T08:53:29;21.00;51.00
35325;DHT22;35135;47.510;19.036;2023-12-14T08:55:55;21.00;51.10
35325;DHT22;35135;47.510;19.036;2023-12-14T08:58:21;21.00;51.00
35325;DHT22;35135;47.510;19.036;2023-12-14T09:00:47;21.00;51.00
35325;DHT22;35135;47.510;19.036;2023-12-14T09:03:13;21.00;51.10
35325;DHT22;35135;47.510;19.036;2023-12-14T09:05:38;21.00;51.00
35325;DHT22;35135;47.510;19.036;2023-12-14T09:08:07;21.00;51.00
35325;DHT22;35135;47.510;19.036;2023-12-14T09:10:33;21.00;51.60
35325;DHT22;35135;47.510;19.036;2023-12-14T09:12:59;21.00;51.00
35325;DHT22;35135;47.510;19.036;2023-12-14T09:15:30;21.00;51.00
35325;DHT22;35135;47.510;19.036;2023-12-14T09:17:56;21.00;51.00
35325;DHT22;35135;47.510;19.036;2023-12-14T09:20:22;21.00;51.00
35325;DHT22;35135;47.510;19.036;2023-12-14T09:22:47;21.00;51.00
35325;DHT22;35135;47.510;19.036;2023-12-14T09:25:13;21.00;51.00
35325;DHT22;35135;47.510;19.036;2023-12-14T09:27:38;21.00;51.00
35325;DHT22;35135;47.510;19.036;2023-12-14T09:30:05;21.00;51.00
35325;DHT22;35135;47.510;19.036;2023-12-14T09:32:30;21.00;51.00
35325;DHT22;35135;47.510;19.036;2023-12-14T09:34:56;21.00;51.00
35325;DHT22;35135;47.510;19.036;2023-12-14T09:37:22;21.00;51.00
35325;DHT22;35135;47.510;19.036;2023-12-14T09:39:48;21.00;50.90
35325;DHT22;35135;47.510;19.036;2023-12-14T09:42:18;21.00;50.90
35325;DHT22;35135;47.510;19.036;2023-12-14T09:44:48;21.00;50.90
35325;DHT22;35135;47.510;19.036;2023-12-14T09:47:15;21.00;50.90
35325;DHT22;35135;47.510;19.036;2023-12-14T09:49:41;21.00;50.90
35325;DHT22;35135;47.510;19.036;2023-12-14T09:52:09;21.00;50.90
35325;DHT22;35135;47.510;19.036;2023-12-14T09:54:34;21.00;51.00
35325;DHT22;35135;47.510;19.036;2023-12-14T09:57:00;20.90;50.90
35325;DHT22;35135;47.510;19.036;2023-12-14T09:59:26;20.90;50.90
35325;DHT22;35135;47.510;19.036;2023-12-14T10:01:52;21.00;50.90
35325;DHT22;35135;47.510;19.036;2023-12-14T10:04:19;21.00;50.90
35325;DHT22;35135;47.510;19.036;2023-12-14T10:06:47;20.90;50.90
35325;DHT22;35135;47.510;19.036;2023-12-14T10:09:13;21.00;50.90
35325;DHT22;35135;47.510;19.036;2023-12-14T10:11:41;21.00;51.00
35325;DHT22;35135;47.510;19.036;2023-12-14T10:14:21;20.90;50.90
35325;DHT22;35135;47.510;19.036;2023-12-14T10:16:48;21.00;50.90
35325;DHT22;35135;47.510;19.036;2023-12-14T10:19:14;21.00;51.00
35325;DHT22;35135;47.510;19.036;2023-12-14T10:21:42;21.00;51.00
35325;DHT22;35135;47.510;19.036;2023-12-14T10:24:08;20.90;51.50
35325;DHT22;35135;47.510;19.036;2023-12-14T10:26:33;20.90;50.90
35325;DHT22;35135;47.510;19.036;2023-12-14T10:28:59;21.00;51.00
35325;DHT22;35135;47.510;19.036;2023-12-14T10:31:25;20.90;50.90
35325;DHT22;35135;47.510;19.036;2023-12-14T10:33:52;20.90;50.90
35325;DHT22;35135;47.510;19.036;2023-12-14T10:36:19;20.90;50.90
35325;DHT22;35135;47.510;19.036;2023-12-14T10:38:52;20.90;50.90
35325;DHT22;35135;47.510;19.036;2023-12-14T10:41:18;20.90;50.90
35325;DHT22;35135;47.510;19.036;2023-12-14T10:43:48;20.90;50.90
35325;DHT22;35135;47.510;19.036;2023-12-14T10:46:15;20.90;50.90
35325;DHT22;35135;47.510;19.036;2023-12-14T10:48:43;20.90;50.90
35325;DHT22;35135;47.510;19.036;2023-12-14T10:51:11;20.90;50.90
35325;DHT22;35135;47.510;19.036;2023-12-14T10:53:38;20.90;50.90
35325;DHT22;35135;47.510;19.036;2023-12-14T10:56:06;20.90;50.90
35325;DHT22;35135;47.510;19.036;2023-12-14T10:58:46;20.90;50.90
35325;DHT22;35135;47.510;19.036;2023-12-14T11:01:16;20.90;50.90
35325;DHT22;35135;47.510;19.036;2023-12-14T11:03:43;20.90;50.90
35325;DHT22;35135;47.510;19.036;2023-12-14T11:06:33;20.90;50.90
35325;DHT22;35135;47.510;19.036;2023-12-14T11:09:01;20.90;50.90
35325;DHT22;35135;47.510;19.036;2023-12-14T11:11:41;20.90;50.90
35325;DHT22;35135;47.510;19.036;2023-12-14T11:14:11;20.90;50.90
35325;DHT22;35135;47.510;19.036;2023-12-14T11:16:38;20.90;50.90
35325;DHT22;35135;47.510;19.036;2023-12-14T11:22:09;20.90;50.90
35325;DHT22;35135;47.510;19.036;2023-12-14T11:24:35;20.90;50.90
35325;DHT22;35135;47.510;19.036;2023-12-14T11:27:06;20.90;50.90
35325;DHT22;35135;47.510;19.036;2023-12-14T11:29:31;20.90;50.90
35325;DHT22;35135;47.510;19.036;2023-12-14T11:31:58;20.90;50.90
35325;DHT22;35135;47.510;19.036;2023-12-14T11:34:27;20.90;50.90
35325;DHT22;35135;47.510;19.036;2023-12-14T11:36:54;20.90;50.90
35325;DHT22;35135;47.510;19.036;2023-12-14T11:39:20;20.90;50.90
35325;DHT22;35135;47.510;19.036;2023-12-14T11:42:03;20.90;50.90
35325;DHT22;35135;47.510;19.036;2023-12-14T11:44:29;20.90;50.90
35325;DHT22;35135;47.510;19.036;2023-12-14T11:46:56;20.90;50.90
35325;DHT22;35135;47.510;19.036;2023-12-14T11:49:24;20.90;50.90
35325;DHT22;35135;47.510;19.036;2023-12-14T11:51:52;20.90;50.90
35325;DHT22;35135;47.510;19.036;2023-12-14T11:54:18;20.90;50.90
35325;DHT22;35135;47.510;19.036;2023-12-14T11:56:48;20.90;50.90
35325;DHT22;35135;47.510;19.036;2023-12-14T11:59:18;20.90;50.90
35325;DHT22;35135;47.510;19.036;2023-12-14T12:02:22;20.90;50.90
35325;DHT22;35135;47.510;19.036;2023-12-14T12:04:51;20.90;50.90
35325;DHT22;35135;47.510;19.036;2023-12-14T12:07:17;20.90;50.90
35325;DHT22;35135;47.510;19.036;2023-12-14T12:09:44;20.90;50.90
35325;DHT22;35135;47.510;19.036;2023-12-14T12:12:11;20.90;50.80
35325;DHT22;35135;47.510;19.036;2023-12-14T12:14:38;20.90;50.90
35325;DHT22;35135;47.510;19.036;2023-12-14T12:17:05;20.90;50.80
35325;DHT22;35135;47.510;19.036;2023-12-14T12:19:35;20.90;50.80
35325;DHT22;35135;47.510;19.036;2023-12-14T12:22:01;20.80;50.70
35325;DHT22;35135;47.510;19.036;2023-12-14T12:24:27;20.90;50.80
35325;DHT22;35135;47.510;19.036;2023-12-14T12:26:53;20.90;50.80
35325;DHT22;35135;47.510;19.036;2023-12-14T12:29:19;20.90;50.80
35325;DHT22;35135;47.510;19.036;2023-12-14T12:31:45;20.90;50.80
35325;DHT22;35135;47.510;19.036;2023-12-14T12:34:11;20.90;50.70
35325;DHT22;35135;47.510;19.036;2023-12-14T12:36:37;20.90;50.70
35325;DHT22;35135;47.510;19.036;2023-12-14T12:39:03;20.90;50.70
35325;DHT22;35135;47.510;19.036;2023-12-14T12:41:31;20.90;50.70
35325;DHT22;35135;47.510;19.036;2023-12-14T12:43:57;20.80;50.70
35325;DHT22;35135;47.510;19.036;2023-12-14T12:46:24;20.90;50.70
35325;DHT22;35135;47.510;19.036;2023-12-14T12:48:51;20.80;50.70
35325;DHT22;35135;47.510;19.036;2023-12-14T12:51:17;20.90;50.70
35325;DHT22;35135;47.510;19.036;2023-12-14T12:53:42;20.80;50.70
35325;DHT22;35135;47.510;19.036;2023-12-14T12:56:08;20.90;50.70
35325;DHT22;35135;47.510;19.036;2023-12-14T12:58:34;20.80;50.70
35325;DHT22;35135;47.510;19.036;2023-12-14T13:00:59;20.90;50.70
35325;DHT22;35135;47.510;19.036;2023-12-14T13:03:25;20.90;50.70
35325;DHT22;35135;47.510;19.036;2023-12-14T13:05:51;20.90;50.70
35325;DHT22;35135;47.510;19.036;2023-12-14T13:08:16;20.90;50.70
35325;DHT22;35135;47.510;19.036;2023-12-14T13:10:43;20.90;50.70
35325;DHT22;35135;47.510;19.036;2023-12-14T13:13:09;20.90;50.70
35325;DHT22;35135;47.510;19.036;2023-12-14T13:15:38;20.90;50.70
35325;DHT22;35135;47.510;19.036;2023-12-14T13:18:04;20.90;50.70
35325;DHT22;35135;47.510;19.036;2023-12-14T13:20:30;20.80;50.60
35325;DHT22;35135;47.510;19.036;2023-12-14T13:22:55;20.90;50.70
35325;DHT22;35135;47.510;19.036;2023-12-14T13:25:21;20.90;50.70
35325;DHT22;35135;47.510;19.036;2023-12-14T13:27:51;20.80;50.60
35325;DHT22;35135;47.510;19.036;2023-12-14T13:30:17;20.80;50.60
35325;DHT22;35135;47.510;19.036;2023-12-14T13:32:43;20.80;50.60
35325;DHT22;35135;47.510;19.036;2023-12-14T13:35:09;20.80;50.60
35325;DHT22;35135;47.510;19.036;2023-12-14T13:37:35;20.80;50.60
35325;DHT22;35135;47.510;19.036;2023-12-14T13:40:01;20.80;50.60
35325;DHT22;35135;47.510;19.036;2023-12-14T13:42:26;20.80;50.60
35325;DHT22;35135;47.510;19.036;2023-12-14T13:44:52;20.80;50.60
35325;DHT22;35135;47.510;19.036;2023-12-14T13:47:17;20.80;50.60
35325;DHT22;35135;47.510;19.036;2023-12-14T13:49:43;20.80;50.60
35325;DHT22;35135;47.510;19.036;2023-12-14T13:52:09;20.80;50.60
35325;DHT22;35135;47.510;19.036;2023-12-14T13:54:34;20.80;50.60
35325;DHT22;35135;47.510;19.036;2023-12-14T13:57:02;20.80;50.60
35325;DHT22;35135;47.510;19.036;2023-12-14T13:59:28;20.80;50.60
35325;DHT22;35135;47.510;19.036;2023-12-14T14:01:53;20.80;50.60
35325;DHT22;35135;47.510;19.036;2023-12-14T14:04:19;20.80;50.60
35325;DHT22;35135;47.510;19.036;2023-12-14T14:06:45;20.80;50.60
35325;DHT22;35135;47.510;19.036;2023-12-14T14:09:12;20.80;50.60
35325;DHT22;35135;47.510;19.036;2023-12-14T14:11:37;20.80;50.60
35325;DHT22;35135;47.510;19.036;2023-12-14T14:14:06;20.80;50.60
35325;DHT22;35135;47.510;19.036;2023-12-14T14:16:32;20.80;50.60
35325;DHT22;35135;47.510;19.036;2023-12-14T14:18:58;20.80;50.60
35325;DHT22;35135;47.510;19.036;2023-12-14T14:21:24;20.80;50.60
35325;DHT22;35135;47.510;19.036;2023-12-14T14:23:49;20.80;50.60
35325;DHT22;35135;47.510;19.036;2023-12-14T14:26:15;20.80;50.60
35325;DHT22;35135;47.510;19.036;2023-12-14T14:28:41;20.80;50.60
35325;DHT22;35135;47.510;19.036;2023-12-14T14:31:06;20.80;50.70
35325;DHT22;35135;47.510;19.036;2023-12-14T14:33:32;20.80;50.70
35325;DHT22;35135;47.510;19.036;2023-12-14T14:35:58;20.70;50.60
35325;DHT22;35135;47.510;19.036;2023-12-14T14:38:24;20.70;50.60
35325;DHT22;35135;47.510;19.036;2023-12-14T14:40:49;20.70;50.60
35325;DHT22;35135;47.510;19.036;2023-12-14T14:43:15;20.70;50.60
35325;DHT22;35135;47.510;19.036;2023-12-14T14:45:41;20.70;50.60
35325;DHT22;35135;47.510;19.036;2023-12-14T14:48:06;20.70;50.60
35325;DHT22;35135;47.510;19.036;2023-12-14T14:50:36;20.70;50.60
35325;DHT22;35135;47.510;19.036;2023-12-14T14:53:02;20.70;50.60
35325;DHT22;35135;47.510;19.036;2023-12-14T14:55:29;20.70;50.60
35325;DHT22;35135;47.510;19.036;2023-12-14T14:57:54;20.70;50.60
35325;DHT22;35135;47.510;19.036;2023-12-14T15:00:20;20.70;50.60
35325;DHT22;35135;47.510;19.036;2023-12-14T15:02:46;20.70;50.70
35325;DHT22;35135;47.510;19.036;2023-12-14T15:05:12;20.70;50.70
35325;DHT22;35135;47.510;19.036;2023-12-14T15:07:37;20.70;50.70
35325;DHT22;35135;47.510;19.036;2023-12-14T15:10:03;20.70;50.70
35325;DHT22;35135;47.510;19.036;2023-12-14T15:12:29;20.70;50.70